KSUU/SUU METAR and TAF weather

Enter ICAO airport designator
Station Type Date Time Source
KSUU METAR 2021/03/05 04:58 UTC NOAA

KSUU 050458Z AUTO 25009KT 10SM CLR 09/05 A3024 RMK AO2 SLP247 T00940046 $


Station Type Date Time Source
KSUU Decoded METAR 2021/03/05 04:58 UTC NOAA

Fairfield / Travis Air Force Base, CA, United States (KSUU) 38-16N 121-57W 22M
Mar 04, 2021 - 11:58 PM EST / 2021.03.05 0458 UTC
Wind: from the WSW (250 degrees) at 10 MPH (9 KT):0
Visibility: 10 mile(s):0
Sky conditions: clear
Temperature: 48.9 F (9.4 C)
Dew Point: 40.3 F (4.6 C)
Relative Humidity: 71%
Pressure (altimeter): 30.24 in. Hg (1024 hPa)
ob: KSUU 050458Z AUTO 25009KT 10SM CLR 09/05 A3024 RMK AO2 SLP247 T00940046
cycle: 5

Station Type Date Time Source
KSUU TAF 2021/03/05 03:06 UTC NOAA

TAF KSUU 050301Z 0503/0609 24012G20KT 9999 SKC QNH3022INS
BECMG 0512/0513 24009KT 9999 SCT200 QNH3012INS
BECMG 0600/0601 24015G25KT 9999 FEW040 SCT120 BKN200 QNH3005INS
BECMG 0604/0605 24015G25KT 8000 -RA BKN020 OVC100 QNH3002INS TX19/0522Z TN03/0514Z

Example: see airport list